sensor_id;sensor_type;location;lat;lon;timestamp;pressure;altitude;pressure_sealevel;temperature
68446;BMP280;35789;48.414;12.768;2023-03-23T00:00:00;96570.0;;;
68446;BMP280;35789;48.414;12.768;2023-03-23T00:05:00;96570.0;;;
68446;BMP280;35789;48.414;12.768;2023-03-23T00:10:01;96570.0;;;
68446;BMP280;35789;48.414;12.768;2023-03-23T00:15:04;96570.0;;;
68446;BMP280;35789;48.414;12.768;2023-03-23T00:20:02;96560.0;;;
68446;BMP280;35789;48.414;12.768;2023-03-23T00:25:00;96560.0;;;
68446;BMP280;35789;48.414;12.768;2023-03-23T00:30:00;96570.0;;;
68446;BMP280;35789;48.414;12.768;2023-03-23T00:35:00;96570.0;;;
68446;BMP280;35789;48.414;12.768;2023-03-23T00:40:00;96570.0;;;
68446;BMP280;35789;48.414;12.768;2023-03-23T00:45:00;96570.0;;;
68446;BMP280;35789;48.414;12.768;2023-03-23T00:50:00;96570.0;;;
68446;BMP280;35789;48.414;12.768;2023-03-23T00:55:00;96560.0;;;
68446;BMP280;35789;48.414;12.768;2023-03-23T01:00:00;96550.0;;;
68446;BMP280;35789;48.414;12.768;2023-03-23T01:05:00;96550.0;;;
68446;BMP280;35789;48.414;12.768;2023-03-23T01:10:00;96550.0;;;
68446;BMP280;35789;48.414;12.768;2023-03-23T01:15:00;96550.0;;;
68446;BMP280;35789;48.414;12.768;2023-03-23T01:20:00;96550.0;;;
68446;BMP280;35789;48.414;12.768;2023-03-23T01:25:00;96550.0;;;
68446;BMP280;35789;48.414;12.768;2023-03-23T01:30:00;96540.0;;;
68446;BMP280;35789;48.414;12.768;2023-03-23T01:35:00;96540.0;;;
68446;BMP280;35789;48.414;12.768;2023-03-23T01:40:00;96540.0;;;
68446;BMP280;35789;48.414;12.768;2023-03-23T01:45:22;96540.0;;;
68446;BMP280;35789;48.414;12.768;2023-03-23T01:50:00;96540.0;;;
68446;BMP280;35789;48.414;12.768;2023-03-23T01:55:00;96540.0;;;
68446;BMP280;35789;48.414;12.768;2023-03-23T02:00:06;96540.0;;;
68446;BMP280;35789;48.414;12.768;2023-03-23T02:05:07;96540.0;;;
68446;BMP280;35789;48.414;12.768;2023-03-23T02:10:00;96540.0;;;
68446;BMP280;35789;48.414;12.768;2023-03-23T02:15:01;96540.0;;;
68446;BMP280;35789;48.414;12.768;2023-03-23T02:20:17;96550.0;;;
68446;BMP280;35789;48.414;12.768;2023-03-23T02:25:25;96540.0;;;
68446;BMP280;35789;48.414;12.768;2023-03-23T02:30:27;96550.0;;;
68446;BMP280;35789;48.414;12.768;2023-03-23T02:35:07;96550.0;;;
68446;BMP280;35789;48.414;12.768;2023-03-23T02:40:06;96540.0;;;
68446;BMP280;35789;48.414;12.768;2023-03-23T02:45:05;96550.0;;;
68446;BMP280;35789;48.414;12.768;2023-03-23T02:50:02;96540.0;;;
68446;BMP280;35789;48.414;12.768;2023-03-23T02:55:02;96540.0;;;
68446;BMP280;35789;48.414;12.768;2023-03-23T03:00:00;96540.0;;;
68446;BMP280;35789;48.414;12.768;2023-03-23T03:05:07;96540.0;;;
68446;BMP280;35789;48.414;12.768;2023-03-23T03:10:08;96550.0;;;
68446;BMP280;35789;48.414;12.768;2023-03-23T03:15:10;96540.0;;;
68446;BMP280;35789;48.414;12.768;2023-03-23T03:20:04;96540.0;;;
68446;BMP280;35789;48.414;12.768;2023-03-23T03:25:01;96550.0;;;
68446;BMP280;35789;48.414;12.768;2023-03-23T03:30:04;96550.0;;;
68446;BMP280;35789;48.414;12.768;2023-03-23T03:35:01;96530.0;;;
68446;BMP280;35789;48.414;12.768;2023-03-23T03:40:00;96540.0;;;
68446;BMP280;35789;48.414;12.768;2023-03-23T03:45:00;96540.0;;;
68446;BMP280;35789;48.414;12.768;2023-03-23T03:50:01;96550.0;;;
68446;BMP280;35789;48.414;12.768;2023-03-23T03:55:01;96560.0;;;
68446;BMP280;35789;48.414;12.768;2023-03-23T04:00:00;96550.0;;;
68446;BMP280;35789;48.414;12.768;2023-03-23T04:05:00;96550.0;;;
68446;BMP280;35789;48.414;12.768;2023-03-23T04:10:00;96550.0;;;
68446;BMP280;35789;48.414;12.768;2023-03-23T04:15:00;96550.0;;;
68446;BMP280;35789;48.414;12.768;2023-03-23T04:20:00;96550.0;;;
68446;BMP280;35789;48.414;12.768;2023-03-23T04:25:01;96550.0;;;
68446;BMP280;35789;48.414;12.768;2023-03-23T04:30:00;96550.0;;;
68446;BMP280;35789;48.414;12.768;2023-03-23T04:35:00;96550.0;;;
68446;BMP280;35789;48.414;12.768;2023-03-23T04:40:00;96550.0;;;
68446;BMP280;35789;48.414;12.768;2023-03-23T04:45:00;96560.0;;;
68446;BMP280;35789;48.414;12.768;2023-03-23T04:50:00;96560.0;;;
68446;BMP280;35789;48.414;12.768;2023-03-23T04:55:00;96560.0;;;
68446;BMP280;35789;48.414;12.768;2023-03-23T05:00:00;96560.0;;;
68446;BMP280;35789;48.414;12.768;2023-03-23T05:05:00;96560.0;;;
68446;BMP280;35789;48.414;12.768;2023-03-23T05:10:00;96570.0;;;
68446;BMP280;35789;48.414;12.768;2023-03-23T05:15:00;96580.0;;;
68446;BMP280;35789;48.414;12.768;2023-03-23T05:20:02;96580.0;;;
68446;BMP280;35789;48.414;12.768;2023-03-23T05:25:00;96580.0;;;
68446;BMP280;35789;48.414;12.768;2023-03-23T05:30:00;96570.0;;;
68446;BMP280;35789;48.414;12.768;2023-03-23T05:35:01;96580.0;;;
68446;BMP280;35789;48.414;12.768;2023-03-23T05:40:01;96590.0;;;
68446;BMP280;35789;48.414;12.768;2023-03-23T05:45:01;96580.0;;;
68446;BMP280;35789;48.414;12.768;2023-03-23T05:50:01;96590.0;;;
68446;BMP280;35789;48.414;12.768;2023-03-23T05:55:01;96590.0;;;
68446;BMP280;35789;48.414;12.768;2023-03-23T06:00:02;96600.0;;;
68446;BMP280;35789;48.414;12.768;2023-03-23T06:05:00;96610.0;;;
68446;BMP280;35789;48.414;12.768;2023-03-23T06:10:00;96620.0;;;
68446;BMP280;35789;48.414;12.768;2023-03-23T06:15:00;96610.0;;;
68446;BMP280;35789;48.414;12.768;2023-03-23T06:20:00;96610.0;;;
68446;BMP280;35789;48.414;12.768;2023-03-23T06:25:00;96620.0;;;
68446;BMP280;35789;48.414;12.768;2023-03-23T06:30:01;96620.0;;;
68446;BMP280;35789;48.414;12.768;2023-03-23T06:35:00;96620.0;;;
68446;BMP280;35789;48.414;12.768;2023-03-23T06:40:00;96620.0;;;
68446;BMP280;35789;48.414;12.768;2023-03-23T06:45:03;96620.0;;;
68446;BMP280;35789;48.414;12.768;2023-03-23T06:50:00;96620.0;;;
68446;BMP280;35789;48.414;12.768;2023-03-23T06:55:00;96610.0;;;
68446;BMP280;35789;48.414;12.768;2023-03-23T07:00:00;96600.0;;;
68446;BMP280;35789;48.414;12.768;2023-03-23T07:05:00;96580.0;;;
68446;BMP280;35789;48.414;12.768;2023-03-23T07:10:00;96570.0;;;
68446;BMP280;35789;48.414;12.768;2023-03-23T07:15:00;96560.0;;;
68446;BMP280;35789;48.414;12.768;2023-03-23T07:20:01;96550.0;;;
68446;BMP280;35789;48.414;12.768;2023-03-23T07:25:01;96540.0;;;
68446;BMP280;35789;48.414;12.768;2023-03-23T07:30:00;96540.0;;;
68446;BMP280;35789;48.414;12.768;2023-03-23T07:35:00;96510.0;;;
68446;BMP280;35789;48.414;12.768;2023-03-23T07:40:00;96530.0;;;
68446;BMP280;35789;48.414;12.768;2023-03-23T07:45:00;96510.0;;;
68446;BMP280;35789;48.414;12.768;2023-03-23T07:50:00;96520.0;;;
68446;BMP280;35789;48.414;12.768;2023-03-23T07:55:01;96510.0;;;
68446;BMP280;35789;48.414;12.768;2023-03-23T08:00:00;96530.0;;;
68446;BMP280;35789;48.414;12.768;2023-03-23T08:05:00;96530.0;;;
68446;BMP280;35789;48.414;12.768;2023-03-23T08:10:00;96560.0;;;
68446;BMP280;35789;48.414;12.768;2023-03-23T08:15:00;96540.0;;;
68446;BMP280;35789;48.414;12.768;2023-03-23T08:20:01;96530.0;;;
68446;BMP280;35789;48.414;12.768;2023-03-23T08:25:00;96530.0;;;
68446;BMP280;35789;48.414;12.768;2023-03-23T08:30:00;96530.0;;;
68446;BMP280;35789;48.414;12.768;2023-03-23T08:35:00;96530.0;;;
68446;BMP280;35789;48.414;12.768;2023-03-23T08:40:01;96530.0;;;
68446;BMP280;35789;48.414;12.768;2023-03-23T08:45:00;96540.0;;;
68446;BMP280;35789;48.414;12.768;2023-03-23T08:50:00;96540.0;;;
68446;BMP280;35789;48.414;12.768;2023-03-23T08:55:00;96530.0;;;
68446;BMP280;35789;48.414;12.768;2023-03-23T09:00:00;96530.0;;;
68446;BMP280;35789;48.414;12.768;2023-03-23T09:05:00;96530.0;;;
68446;BMP280;35789;48.414;12.768;2023-03-23T09:10:00;96530.0;;;
68446;BMP280;35789;48.414;12.768;2023-03-23T09:15:00;96520.0;;;
68446;BMP280;35789;48.414;12.768;2023-03-23T09:20:00;96520.0;;;
68446;BMP280;35789;48.414;12.768;2023-03-23T09:25:00;96510.0;;;
68446;BMP280;35789;48.414;12.768;2023-03-23T09:30:00;96520.0;;;
68446;BMP280;35789;48.414;12.768;2023-03-23T09:35:00;96510.0;;;
68446;BMP280;35789;48.414;12.768;2023-03-23T09:40:00;96490.0;;;
68446;BMP280;35789;48.414;12.768;2023-03-23T09:45:21;96500.0;;;
68446;BMP280;35789;48.414;12.768;2023-03-23T09:50:07;96510.0;;;
68446;BMP280;35789;48.414;12.768;2023-03-23T09:55:00;96500.0;;;
68446;BMP280;35789;48.414;12.768;2023-03-23T10:00:09;96500.0;;;
68446;BMP280;35789;48.414;12.768;2023-03-23T10:05:25;96500.0;;;
68446;BMP280;35789;48.414;12.768;2023-03-23T10:10:02;96500.0;;;
68446;BMP280;35789;48.414;12.768;2023-03-23T10:20:20;96490.0;;;
68446;BMP280;35789;48.414;12.768;2023-03-23T10:25:14;96480.0;;;
68446;BMP280;35789;48.414;12.768;2023-03-23T10:30:13;96470.0;;;
68446;BMP280;35789;48.414;12.768;2023-03-23T10:35:05;96480.0;;;
68446;BMP280;35789;48.414;12.768;2023-03-23T10:40:02;96480.0;;;
68446;BMP280;35789;48.414;12.768;2023-03-23T10:45:15;96480.0;;;
68446;BMP280;35789;48.414;12.768;2023-03-23T10:50:04;96470.0;;;
68446;BMP280;35789;48.414;12.768;2023-03-23T10:55:05;96470.0;;;
68446;BMP280;35789;48.414;12.768;2023-03-23T11:00:04;96470.0;;;
68446;BMP280;35789;48.414;12.768;2023-03-23T11:05:05;96480.0;;;
68446;BMP280;35789;48.414;12.768;2023-03-23T11:10:18;96480.0;;;
68446;BMP280;35789;48.414;12.768;2023-03-23T11:15:21;96480.0;;;
68446;BMP280;35789;48.414;12.768;2023-03-23T11:20:11;96490.0;;;
68446;BMP280;35789;48.414;12.768;2023-03-23T11:25:03;96490.0;;;
68446;BMP280;35789;48.414;12.768;2023-03-23T11:30:09;96490.0;;;
68446;BMP280;35789;48.414;12.768;2023-03-23T11:35:03;96490.0;;;
68446;BMP280;35789;48.414;12.768;2023-03-23T11:40:10;96490.0;;;
68446;BMP280;35789;48.414;12.768;2023-03-23T11:45:17;96490.0;;;
68446;BMP280;35789;48.414;12.768;2023-03-23T11:50:14;96480.0;;;
68446;BMP280;35789;48.414;12.768;2023-03-23T11:55:10;96480.0;;;
68446;BMP280;35789;48.414;12.768;2023-03-23T12:00:00;96470.0;;;
68446;BMP280;35789;48.414;12.768;2023-03-23T12:05:30;96460.0;;;
68446;BMP280;35789;48.414;12.768;2023-03-23T12:10:17;96460.0;;;
68446;BMP280;35789;48.414;12.768;2023-03-23T12:15:10;96470.0;;;
68446;BMP280;35789;48.414;12.768;2023-03-23T12:20:19;96450.0;;;
68446;BMP280;35789;48.414;12.768;2023-03-23T12:25:30;96450.0;;;
68446;BMP280;35789;48.414;12.768;2023-03-23T12:30:18;96460.0;;;
68446;BMP280;35789;48.414;12.768;2023-03-23T12:35:12;96460.0;;;
68446;BMP280;35789;48.414;12.768;2023-03-23T12:40:22;96470.0;;;
68446;BMP280;35789;48.414;12.768;2023-03-23T12:45:19;96460.0;;;
68446;BMP280;35789;48.414;12.768;2023-03-23T12:50:07;96460.0;;;
68446;BMP280;35789;48.414;12.768;2023-03-23T12:55:05;96450.0;;;
68446;BMP280;35789;48.414;12.768;2023-03-23T13:00:12;96440.0;;;
68446;BMP280;35789;48.414;12.768;2023-03-23T13:05:06;96440.0;;;
68446;BMP280;35789;48.414;12.768;2023-03-23T13:10:07;96440.0;;;
68446;BMP280;35789;48.414;12.768;2023-03-23T13:15:16;96430.0;;;
68446;BMP280;35789;48.414;12.768;2023-03-23T13:20:25;96420.0;;;
68446;BMP280;35789;48.414;12.768;2023-03-23T13:25:03;96410.0;;;
68446;BMP280;35789;48.414;12.768;2023-03-23T13:30:00;96410.0;;;
68446;BMP280;35789;48.414;12.768;2023-03-23T13:35:02;96410.0;;;
68446;BMP280;35789;48.414;12.768;2023-03-23T13:40:20;96410.0;;;
68446;BMP280;35789;48.414;12.768;2023-03-23T13:45:19;96400.0;;;
68446;BMP280;35789;48.414;12.768;2023-03-23T13:50:03;96400.0;;;
68446;BMP280;35789;48.414;12.768;2023-03-23T13:55:20;96400.0;;;
68446;BMP280;35789;48.414;12.768;2023-03-23T14:00:33;96410.0;;;
68446;BMP280;35789;48.414;12.768;2023-03-23T14:10:06;96400.0;;;
68446;BMP280;35789;48.414;12.768;2023-03-23T14:15:03;96400.0;;;
68446;BMP280;35789;48.414;12.768;2023-03-23T14:20:01;96400.0;;;
68446;BMP280;35789;48.414;12.768;2023-03-23T14:25:03;96400.0;;;
68446;BMP280;35789;48.414;12.768;2023-03-23T14:30:04;96410.0;;;
68446;BMP280;35789;48.414;12.768;2023-03-23T14:35:06;96400.0;;;
68446;BMP280;35789;48.414;12.768;2023-03-23T14:40:01;96420.0;;;
68446;BMP280;35789;48.414;12.768;2023-03-23T14:45:03;96420.0;;;
68446;BMP280;35789;48.414;12.768;2023-03-23T14:50:03;96420.0;;;
68446;BMP280;35789;48.414;12.768;2023-03-23T14:55:13;96420.0;;;
68446;BMP280;35789;48.414;12.768;2023-03-23T15:00:00;96420.0;;;
68446;BMP280;35789;48.414;12.768;2023-03-23T15:05:08;96420.0;;;
68446;BMP280;35789;48.414;12.768;2023-03-23T15:10:01;96420.0;;;
68446;BMP280;35789;48.414;12.768;2023-03-23T15:15:05;96420.0;;;
68446;BMP280;35789;48.414;12.768;2023-03-23T15:20:09;96420.0;;;
68446;BMP280;35789;48.414;12.768;2023-03-23T15:25:10;96430.0;;;
68446;BMP280;35789;48.414;12.768;2023-03-23T15:30:14;96430.0;;;
68446;BMP280;35789;48.414;12.768;2023-03-23T15:35:10;96430.0;;;
68446;BMP280;35789;48.414;12.768;2023-03-23T15:40:00;96420.0;;;
68446;BMP280;35789;48.414;12.768;2023-03-23T15:45:21;96420.0;;;
68446;BMP280;35789;48.414;12.768;2023-03-23T15:50:11;96420.0;;;
68446;BMP280;35789;48.414;12.768;2023-03-23T15:55:00;96420.0;;;
68446;BMP280;35789;48.414;12.768;2023-03-23T16:00:00;96430.0;;;
68446;BMP280;35789;48.414;12.768;2023-03-23T16:05:00;96430.0;;;
68446;BMP280;35789;48.414;12.768;2023-03-23T16:10:00;96440.0;;;
68446;BMP280;35789;48.414;12.768;2023-03-23T16:15:00;96430.0;;;
68446;BMP280;35789;48.414;12.768;2023-03-23T16:20:00;96430.0;;;
68446;BMP280;35789;48.414;12.768;2023-03-23T16:25:00;96430.0;;;
68446;BMP280;35789;48.414;12.768;2023-03-23T16:30:00;96440.0;;;
68446;BMP280;35789;48.414;12.768;2023-03-23T16:35:00;96440.0;;;
68446;BMP280;35789;48.414;12.768;2023-03-23T16:40:02;96450.0;;;
68446;BMP280;35789;48.414;12.768;2023-03-23T16:45:00;96460.0;;;
68446;BMP280;35789;48.414;12.768;2023-03-23T16:50:00;96450.0;;;
68446;BMP280;35789;48.414;12.768;2023-03-23T16:55:00;96460.0;;;
68446;BMP280;35789;48.414;12.768;2023-03-23T17:00:00;96460.0;;;
68446;BMP280;35789;48.414;12.768;2023-03-23T17:05:01;96450.0;;;
68446;BMP280;35789;48.414;12.768;2023-03-23T17:10:00;96470.0;;;
68446;BMP280;35789;48.414;12.768;2023-03-23T17:15:00;96470.0;;;
68446;BMP280;35789;48.414;12.768;2023-03-23T17:20:00;96470.0;;;
68446;BMP280;35789;48.414;12.768;2023-03-23T17:25:00;96480.0;;;
68446;BMP280;35789;48.414;12.768;2023-03-23T17:30:00;96480.0;;;
68446;BMP280;35789;48.414;12.768;2023-03-23T17:35:00;96480.0;;;
68446;BMP280;35789;48.414;12.768;2023-03-23T17:40:01;96480.0;;;
68446;BMP280;35789;48.414;12.768;2023-03-23T17:45:00;96490.0;;;
68446;BMP280;35789;48.414;12.768;2023-03-23T17:50:00;96490.0;;;
68446;BMP280;35789;48.414;12.768;2023-03-23T17:55:01;96500.0;;;
68446;BMP280;35789;48.414;12.768;2023-03-23T18:00:00;96500.0;;;
68446;BMP280;35789;48.414;12.768;2023-03-23T18:05:00;96510.0;;;
68446;BMP280;35789;48.414;12.768;2023-03-23T18:10:00;96500.0;;;
68446;BMP280;35789;48.414;12.768;2023-03-23T18:15:00;96500.0;;;
68446;BMP280;35789;48.414;12.768;2023-03-23T18:20:00;96500.0;;;
68446;BMP280;35789;48.414;12.768;2023-03-23T18:25:00;96500.0;;;
68446;BMP280;35789;48.414;12.768;2023-03-23T18:30:00;96500.0;;;
68446;BMP280;35789;48.414;12.768;2023-03-23T18:35:00;96510.0;;;
68446;BMP280;35789;48.414;12.768;2023-03-23T18:40:00;96520.0;;;
68446;BMP280;35789;48.414;12.768;2023-03-23T18:45:00;96530.0;;;
68446;BMP280;35789;48.414;12.768;2023-03-23T18:50:00;96530.0;;;
68446;BMP280;35789;48.414;12.768;2023-03-23T18:55:00;96530.0;;;
68446;BMP280;35789;48.414;12.768;2023-03-23T19:00:00;96530.0;;;
68446;BMP280;35789;48.414;12.768;2023-03-23T19:05:00;96530.0;;;
68446;BMP280;35789;48.414;12.768;2023-03-23T19:10:01;96530.0;;;
68446;BMP280;35789;48.414;12.768;2023-03-23T19:15:00;96540.0;;;
68446;BMP280;35789;48.414;12.768;2023-03-23T19:20:00;96540.0;;;
68446;BMP280;35789;48.414;12.768;2023-03-23T19:25:00;96550.0;;;
68446;BMP280;35789;48.414;12.768;2023-03-23T19:30:00;96540.0;;;
68446;BMP280;35789;48.414;12.768;2023-03-23T19:35:00;96540.0;;;
68446;BMP280;35789;48.414;12.768;2023-03-23T19:40:00;96550.0;;;
68446;BMP280;35789;48.414;12.768;2023-03-23T19:45:00;96560.0;;;
68446;BMP280;35789;48.414;12.768;2023-03-23T19:50:00;96550.0;;;
68446;BMP280;35789;48.414;12.768;2023-03-23T19:55:00;96550.0;;;
68446;BMP280;35789;48.414;12.768;2023-03-23T20:00:00;96540.0;;;
68446;BMP280;35789;48.414;12.768;2023-03-23T20:05:00;96540.0;;;
68446;BMP280;35789;48.414;12.768;2023-03-23T20:10:00;96550.0;;;
68446;BMP280;35789;48.414;12.768;2023-03-23T20:15:00;96550.0;;;
68446;BMP280;35789;48.414;12.768;2023-03-23T20:20:00;96540.0;;;
68446;BMP280;35789;48.414;12.768;2023-03-23T20:25:01;96550.0;;;
68446;BMP280;35789;48.414;12.768;2023-03-23T20:30:00;96550.0;;;
68446;BMP280;35789;48.414;12.768;2023-03-23T20:35:00;96550.0;;;
68446;BMP280;35789;48.414;12.768;2023-03-23T20:40:01;96550.0;;;
68446;BMP280;35789;48.414;12.768;2023-03-23T20:45:01;96550.0;;;
68446;BMP280;35789;48.414;12.768;2023-03-23T20:50:00;96560.0;;;
68446;BMP280;35789;48.414;12.768;2023-03-23T20:55:00;96560.0;;;
68446;BMP280;35789;48.414;12.768;2023-03-23T21:00:00;96560.0;;;
68446;BMP280;35789;48.414;12.768;2023-03-23T21:05:01;96550.0;;;
68446;BMP280;35789;48.414;12.768;2023-03-23T21:10:00;96550.0;;;
68446;BMP280;35789;48.414;12.768;2023-03-23T21:15:00;96540.0;;;
68446;BMP280;35789;48.414;12.768;2023-03-23T21:20:00;96540.0;;;
68446;BMP280;35789;48.414;12.768;2023-03-23T21:25:00;96540.0;;;
68446;BMP280;35789;48.414;12.768;2023-03-23T21:30:00;96550.0;;;
68446;BMP280;35789;48.414;12.768;2023-03-23T21:35:00;96550.0;;;
68446;BMP280;35789;48.414;12.768;2023-03-23T21:40:00;96550.0;;;
68446;BMP280;35789;48.414;12.768;2023-03-23T21:45:00;96540.0;;;
68446;BMP280;35789;48.414;12.768;2023-03-23T21:50:00;96540.0;;;
68446;BMP280;35789;48.414;12.768;2023-03-23T21:55:01;96550.0;;;
68446;BMP280;35789;48.414;12.768;2023-03-23T22:00:00;96540.0;;;
68446;BMP280;35789;48.414;12.768;2023-03-23T22:05:00;96530.0;;;
68446;BMP280;35789;48.414;12.768;2023-03-23T22:10:00;96530.0;;;
68446;BMP280;35789;48.414;12.768;2023-03-23T22:15:00;96530.0;;;
68446;BMP280;35789;48.414;12.768;2023-03-23T22:20:00;96520.0;;;
68446;BMP280;35789;48.414;12.768;2023-03-23T22:25:00;96520.0;;;
68446;BMP280;35789;48.414;12.768;2023-03-23T22:30:00;96530.0;;;
68446;BMP280;35789;48.414;12.768;2023-03-23T22:35:00;96520.0;;;
68446;BMP280;35789;48.414;12.768;2023-03-23T22:40:00;96510.0;;;
68446;BMP280;35789;48.414;12.768;2023-03-23T22:45:00;96500.0;;;
68446;BMP280;35789;48.414;12.768;2023-03-23T22:50:01;96510.0;;;
68446;BMP280;35789;48.414;12.768;2023-03-23T22:55:00;96500.0;;;
68446;BMP280;35789;48.414;12.768;2023-03-23T23:00:00;96500.0;;;
68446;BMP280;35789;48.414;12.768;2023-03-23T23:05:00;96490.0;;;
68446;BMP280;35789;48.414;12.768;2023-03-23T23:10:00;96490.0;;;
68446;BMP280;35789;48.414;12.768;2023-03-23T23:15:01;96480.0;;;
68446;BMP280;35789;48.414;12.768;2023-03-23T23:20:01;96480.0;;;
68446;BMP280;35789;48.414;12.768;2023-03-23T23:25:00;96470.0;;;
68446;BMP280;35789;48.414;12.768;2023-03-23T23:30:00;96460.0;;;
68446;BMP280;35789;48.414;12.768;2023-03-23T23:35:01;96460.0;;;
68446;BMP280;35789;48.414;12.768;2023-03-23T23:40:00;96450.0;;;
68446;BMP280;35789;48.414;12.768;2023-03-23T23:45:00;96450.0;;;
68446;BMP280;35789;48.414;12.768;2023-03-23T23:50:00;96440.0;;;
68446;BMP280;35789;48.414;12.768;2023-03-23T23:55:00;96440.0;;;
